Ana Sayfa
METAR-TAF:

METAR-TAF

Havaalanları :

Zaporijya Uluslararası Havalimanı

Zaporijya, Ukrayna

Enlem: 47-52-02N, Boylam: 035-18-59E, yükseklik: 114 m

Güncel hava durumu gözlemi

Rapor saat 20:00 UTC de 43 dakika önce yapıldı.
Rüzgar kuzeybatıdan 4 kt, batı ve kuzey/kuzeybatı arasında değişken
Sıcaklık 16°C
Nem 94%
Basınç 1017 hPa
Görüş mesafesi 10 km veya daha fazla
1500 m altında bulut yok ve kümülonimbus yok

METAR: UKDE 232000Z 31002MPS 270V340 CAVOK 16/15 Q1017 R02/210370 NOSIG

Saat: 23:43 (20:43 UTC)

Tahmin

Rapor saat 20:19 UTC de 24 dakika önce yapıldı.
Ayın 23'si saat 21 UTC'den ayın 24'si saat 06 UTC'ye kadar geçerli Tahmin
Rüzgar doğu/kuzeydoğudan 6 kt
Görüş mesafesi 10 km veya daha fazla
3000 ft yükseklikte parçalı çok bulutlu
Geçici
ayın 23'si saat 21 UTC'den ayın 23'si saat 24 UTC'ye kadar
Görüş mesafesi: 1000 m
500 ft yükseklikte parçalı çok bulutlu
Pus

TAF: UKDE 232019Z 2321/2406 06003MPS 9999 BKN030 TEMPO 2321/2324 1000 BR BKN005

4.000'den fazla havaalanı için hava durumu gözlemleri ve tahminleri (METAR ve TAF raporları).

Kullanılabilir istasyonlar harita üzerinde sarı ve kırmızı noktalarla gösterilir.

İstasyonun adını görmek için fareyi noktanın üzerinde gezdirin.

Sonrasında hava gözlem ve tahminlerini görmek için tıklayın.

Haritayı değiştirmek için: yaklaştırmak için siyah artı işaretli yeşil düğmeye ve uzaklaştırmak için de eksi işaretli düğmeye hızla tıklayın; bitişik haritalar için yeşil okları kullanın.


METAR-TAF: